sensor_id;sensor_type;location;lat;lon;timestamp;P1;durP1;ratioP1;P2;durP2;ratioP2
22634;SDS011;11484;50.858;4.384;2024-01-25T00:01:25;45.92;;;6.75;;
22634;SDS011;11484;50.858;4.384;2024-01-25T00:03:51;42.83;;;8.23;;
22634;SDS011;11484;50.858;4.384;2024-01-25T00:06:17;38.40;;;6.32;;
22634;SDS011;11484;50.858;4.384;2024-01-25T00:08:42;46.13;;;8.95;;
22634;SDS011;11484;50.858;4.384;2024-01-25T00:11:08;37.95;;;7.25;;
22634;SDS011;11484;50.858;4.384;2024-01-25T00:13:34;40.22;;;6.93;;
22634;SDS011;11484;50.858;4.384;2024-01-25T00:16:00;36.50;;;6.88;;
22634;SDS011;11484;50.858;4.384;2024-01-25T00:18:26;40.20;;;6.85;;
22634;SDS011;11484;50.858;4.384;2024-01-25T00:20:54;40.80;;;8.40;;
22634;SDS011;11484;50.858;4.384;2024-01-25T00:23:20;46.28;;;6.93;;
22634;SDS011;11484;50.858;4.384;2024-01-25T00:25:46;44.53;;;7.55;;
22634;SDS011;11484;50.858;4.384;2024-01-25T00:28:12;35.53;;;7.10;;
22634;SDS011;11484;50.858;4.384;2024-01-25T00:30:38;45.58;;;6.82;;
22634;SDS011;11484;50.858;4.384;2024-01-25T00:33:04;34.00;;;6.68;;
22634;SDS011;11484;50.858;4.384;2024-01-25T00:35:31;51.55;;;7.00;;
22634;SDS011;11484;50.858;4.384;2024-01-25T00:37:57;34.08;;;6.50;;
22634;SDS011;11484;50.858;4.384;2024-01-25T00:40:23;33.60;;;6.22;;
22634;SDS011;11484;50.858;4.384;2024-01-25T00:42:49;38.25;;;6.47;;
22634;SDS011;11484;50.858;4.384;2024-01-25T00:45:27;40.55;;;6.32;;
22634;SDS011;11484;50.858;4.384;2024-01-25T00:47:55;41.38;;;7.72;;
22634;SDS011;11484;50.858;4.384;2024-01-25T00:50:25;41.80;;;6.55;;
22634;SDS011;11484;50.858;4.384;2024-01-25T00:52:54;43.70;;;6.90;;
22634;SDS011;11484;50.858;4.384;2024-01-25T00:55:20;43.55;;;7.18;;
22634;SDS011;11484;50.858;4.384;2024-01-25T00:57:48;41.88;;;6.93;;
22634;SDS011;11484;50.858;4.384;2024-01-25T01:00:16;35.13;;;6.25;;
22634;SDS011;11484;50.858;4.384;2024-01-25T01:02:43;43.38;;;6.63;;
22634;SDS011;11484;50.858;4.384;2024-01-25T01:05:10;37.72;;;6.63;;
22634;SDS011;11484;50.858;4.384;2024-01-25T01:07:37;41.33;;;7.32;;
22634;SDS011;11484;50.858;4.384;2024-01-25T01:10:05;41.97;;;7.68;;
22634;SDS011;11484;50.858;4.384;2024-01-25T01:12:34;48.60;;;7.28;;
22634;SDS011;11484;50.858;4.384;2024-01-25T01:15:00;43.03;;;7.38;;
22634;SDS011;11484;50.858;4.384;2024-01-25T01:17:26;36.47;;;6.45;;
22634;SDS011;11484;50.858;4.384;2024-01-25T01:19:52;45.42;;;6.43;;
22634;SDS011;11484;50.858;4.384;2024-01-25T01:22:18;43.17;;;7.35;;
22634;SDS011;11484;50.858;4.384;2024-01-25T01:24:44;37.25;;;6.88;;
22634;SDS011;11484;50.858;4.384;2024-01-25T01:27:09;39.15;;;7.03;;
22634;SDS011;11484;50.858;4.384;2024-01-25T01:29:35;43.83;;;7.78;;
22634;SDS011;11484;50.858;4.384;2024-01-25T01:32:01;47.33;;;8.27;;
22634;SDS011;11484;50.858;4.384;2024-01-25T01:34:27;40.58;;;7.97;;
22634;SDS011;11484;50.858;4.384;2024-01-25T01:36:53;46.75;;;6.65;;
22634;SDS011;11484;50.858;4.384;2024-01-25T01:39:18;42.03;;;7.50;;
22634;SDS011;11484;50.858;4.384;2024-01-25T01:41:48;37.83;;;6.97;;
22634;SDS011;11484;50.858;4.384;2024-01-25T01:44:14;35.15;;;6.05;;
22634;SDS011;11484;50.858;4.384;2024-01-25T01:46:40;39.45;;;5.95;;
22634;SDS011;11484;50.858;4.384;2024-01-25T01:49:07;46.08;;;7.07;;
22634;SDS011;11484;50.858;4.384;2024-01-25T01:51:36;34.83;;;6.47;;
22634;SDS011;11484;50.858;4.384;2024-01-25T01:54:05;39.00;;;6.82;;
22634;SDS011;11484;50.858;4.384;2024-01-25T01:56:32;32.72;;;5.40;;
22634;SDS011;11484;50.858;4.384;2024-01-25T01:59:02;31.27;;;6.45;;
22634;SDS011;11484;50.858;4.384;2024-01-25T02:01:30;44.42;;;6.18;;
22634;SDS011;11484;50.858;4.384;2024-01-25T02:03:56;43.47;;;6.55;;
22634;SDS011;11484;50.858;4.384;2024-01-25T02:06:25;37.50;;;6.28;;
22634;SDS011;11484;50.858;4.384;2024-01-25T02:08:52;37.90;;;6.83;;
22634;SDS011;11484;50.858;4.384;2024-01-25T02:11:23;38.10;;;6.88;;
22634;SDS011;11484;50.858;4.384;2024-01-25T02:13:49;37.33;;;6.25;;
22634;SDS011;11484;50.858;4.384;2024-01-25T02:16:15;31.88;;;5.95;;
22634;SDS011;11484;50.858;4.384;2024-01-25T02:18:41;36.90;;;6.18;;
22634;SDS011;11484;50.858;4.384;2024-01-25T02:21:07;37.60;;;6.25;;
22634;SDS011;11484;50.858;4.384;2024-01-25T02:23:33;36.25;;;6.53;;
22634;SDS011;11484;50.858;4.384;2024-01-25T02:25:59;40.75;;;6.07;;
22634;SDS011;11484;50.858;4.384;2024-01-25T02:28:24;40.47;;;5.93;;
22634;SDS011;11484;50.858;4.384;2024-01-25T02:30:50;29.90;;;5.63;;
22634;SDS011;11484;50.858;4.384;2024-01-25T02:33:16;37.92;;;5.35;;
22634;SDS011;11484;50.858;4.384;2024-01-25T02:35:42;35.78;;;6.43;;
22634;SDS011;11484;50.858;4.384;2024-01-25T02:38:07;32.90;;;6.30;;
22634;SDS011;11484;50.858;4.384;2024-01-25T02:40:33;34.35;;;5.82;;
22634;SDS011;11484;50.858;4.384;2024-01-25T02:42:59;32.75;;;6.13;;
22634;SDS011;11484;50.858;4.384;2024-01-25T02:45:26;40.25;;;6.40;;
22634;SDS011;11484;50.858;4.384;2024-01-25T02:47:51;29.10;;;5.75;;
22634;SDS011;11484;50.858;4.384;2024-01-25T02:50:17;39.95;;;6.57;;
22634;SDS011;11484;50.858;4.384;2024-01-25T02:52:43;30.98;;;5.85;;
22634;SDS011;11484;50.858;4.384;2024-01-25T02:55:09;45.38;;;6.63;;
22634;SDS011;11484;50.858;4.384;2024-01-25T02:57:34;46.75;;;6.22;;
22634;SDS011;11484;50.858;4.384;2024-01-25T03:00:02;35.10;;;5.97;;
22634;SDS011;11484;50.858;4.384;2024-01-25T03:02:28;37.42;;;6.25;;
22634;SDS011;11484;50.858;4.384;2024-01-25T03:04:53;34.30;;;6.43;;
22634;SDS011;11484;50.858;4.384;2024-01-25T03:07:19;32.28;;;7.05;;
22634;SDS011;11484;50.858;4.384;2024-01-25T03:09:45;33.75;;;5.72;;
22634;SDS011;11484;50.858;4.384;2024-01-25T03:12:10;38.35;;;5.38;;
22634;SDS011;11484;50.858;4.384;2024-01-25T03:14:36;40.67;;;5.68;;
22634;SDS011;11484;50.858;4.384;2024-01-25T03:17:02;36.38;;;5.15;;
22634;SDS011;11484;50.858;4.384;2024-01-25T03:19:28;31.85;;;5.63;;
22634;SDS011;11484;50.858;4.384;2024-01-25T03:21:53;42.88;;;5.95;;
22634;SDS011;11484;50.858;4.384;2024-01-25T03:24:20;31.80;;;6.18;;
22634;SDS011;11484;50.858;4.384;2024-01-25T03:26:46;26.52;;;6.15;;
22634;SDS011;11484;50.858;4.384;2024-01-25T03:29:13;39.28;;;7.07;;
22634;SDS011;11484;50.858;4.384;2024-01-25T03:31:39;36.33;;;6.47;;
22634;SDS011;11484;50.858;4.384;2024-01-25T03:34:04;33.28;;;5.43;;
22634;SDS011;11484;50.858;4.384;2024-01-25T03:36:30;31.95;;;6.72;;
22634;SDS011;11484;50.858;4.384;2024-01-25T03:38:56;38.60;;;6.07;;
22634;SDS011;11484;50.858;4.384;2024-01-25T03:41:22;41.05;;;6.15;;
22634;SDS011;11484;50.858;4.384;2024-01-25T03:43:48;32.58;;;5.80;;
22634;SDS011;11484;50.858;4.384;2024-01-25T03:46:15;41.63;;;6.20;;
22634;SDS011;11484;50.858;4.384;2024-01-25T03:48:41;28.85;;;5.38;;
22634;SDS011;11484;50.858;4.384;2024-01-25T03:51:07;40.22;;;6.40;;
22634;SDS011;11484;50.858;4.384;2024-01-25T03:53:33;37.08;;;6.18;;
22634;SDS011;11484;50.858;4.384;2024-01-25T03:55:59;33.55;;;6.90;;
22634;SDS011;11484;50.858;4.384;2024-01-25T03:58:25;36.97;;;6.65;;
22634;SDS011;11484;50.858;4.384;2024-01-25T04:00:50;43.42;;;6.43;;
22634;SDS011;11484;50.858;4.384;2024-01-25T04:03:16;29.58;;;6.28;;
22634;SDS011;11484;50.858;4.384;2024-01-25T04:05:42;31.20;;;5.05;;
22634;SDS011;11484;50.858;4.384;2024-01-25T04:08:08;35.35;;;5.50;;
22634;SDS011;11484;50.858;4.384;2024-01-25T04:10:33;36.10;;;6.32;;
22634;SDS011;11484;50.858;4.384;2024-01-25T04:12:59;31.58;;;5.35;;
22634;SDS011;11484;50.858;4.384;2024-01-25T04:15:26;34.30;;;6.43;;
22634;SDS011;11484;50.858;4.384;2024-01-25T04:17:51;32.92;;;6.20;;
22634;SDS011;11484;50.858;4.384;2024-01-25T04:20:21;37.58;;;6.00;;
22634;SDS011;11484;50.858;4.384;2024-01-25T04:22:47;37.20;;;6.28;;
22634;SDS011;11484;50.858;4.384;2024-01-25T04:25:13;27.77;;;5.97;;
22634;SDS011;11484;50.858;4.384;2024-01-25T04:27:39;33.38;;;5.85;;
22634;SDS011;11484;50.858;4.384;2024-01-25T04:30:06;35.25;;;5.72;;
22634;SDS011;11484;50.858;4.384;2024-01-25T04:32:35;33.38;;;6.13;;
22634;SDS011;11484;50.858;4.384;2024-01-25T04:35:02;33.53;;;7.15;;
22634;SDS011;11484;50.858;4.384;2024-01-25T04:37:28;37.47;;;6.10;;
22634;SDS011;11484;50.858;4.384;2024-01-25T04:39:56;26.98;;;5.43;;
22634;SDS011;11484;50.858;4.384;2024-01-25T04:42:25;34.20;;;6.22;;
22634;SDS011;11484;50.858;4.384;2024-01-25T04:44:52;38.92;;;6.50;;
22634;SDS011;11484;50.858;4.384;2024-01-25T04:47:19;34.33;;;7.10;;
22634;SDS011;11484;50.858;4.384;2024-01-25T04:49:46;26.15;;;6.13;;
22634;SDS011;11484;50.858;4.384;2024-01-25T04:52:13;32.25;;;5.68;;
22634;SDS011;11484;50.858;4.384;2024-01-25T04:54:39;33.58;;;6.45;;
22634;SDS011;11484;50.858;4.384;2024-01-25T04:57:04;43.88;;;6.50;;
22634;SDS011;11484;50.858;4.384;2024-01-25T04:59:34;28.45;;;5.35;;
22634;SDS011;11484;50.858;4.384;2024-01-25T05:02:01;30.60;;;5.80;;
22634;SDS011;11484;50.858;4.384;2024-01-25T05:04:28;35.92;;;5.95;;
22634;SDS011;11484;50.858;4.384;2024-01-25T05:06:56;33.92;;;6.20;;
22634;SDS011;11484;50.858;4.384;2024-01-25T05:09:22;28.42;;;5.82;;
22634;SDS011;11484;50.858;4.384;2024-01-25T05:11:48;30.73;;;6.25;;
22634;SDS011;11484;50.858;4.384;2024-01-25T05:14:14;35.28;;;7.10;;
22634;SDS011;11484;50.858;4.384;2024-01-25T05:16:40;34.50;;;6.80;;
22634;SDS011;11484;50.858;4.384;2024-01-25T05:19:06;42.70;;;6.85;;
22634;SDS011;11484;50.858;4.384;2024-01-25T05:21:32;24.23;;;5.45;;
22634;SDS011;11484;50.858;4.384;2024-01-25T05:23:58;34.50;;;7.20;;
22634;SDS011;11484;50.858;4.384;2024-01-25T05:26:24;35.03;;;5.85;;
22634;SDS011;11484;50.858;4.384;2024-01-25T05:28:51;33.53;;;5.95;;
22634;SDS011;11484;50.858;4.384;2024-01-25T05:31:17;36.67;;;6.40;;
22634;SDS011;11484;50.858;4.384;2024-01-25T05:33:42;35.70;;;6.60;;
22634;SDS011;11484;50.858;4.384;2024-01-25T05:36:08;29.58;;;6.10;;
22634;SDS011;11484;50.858;4.384;2024-01-25T05:38:34;31.77;;;6.15;;
22634;SDS011;11484;50.858;4.384;2024-01-25T05:41:00;35.20;;;6.72;;
22634;SDS011;11484;50.858;4.384;2024-01-25T05:43:26;32.83;;;5.75;;
22634;SDS011;11484;50.858;4.384;2024-01-25T05:45:52;35.28;;;6.10;;
22634;SDS011;11484;50.858;4.384;2024-01-25T05:48:17;35.13;;;5.90;;
22634;SDS011;11484;50.858;4.384;2024-01-25T05:50:43;42.55;;;6.50;;
22634;SDS011;11484;50.858;4.384;2024-01-25T05:53:09;36.85;;;6.38;;
22634;SDS011;11484;50.858;4.384;2024-01-25T05:55:35;41.10;;;6.20;;
22634;SDS011;11484;50.858;4.384;2024-01-25T05:58:00;35.25;;;6.45;;
22634;SDS011;11484;50.858;4.384;2024-01-25T06:00:27;38.47;;;6.50;;
22634;SDS011;11484;50.858;4.384;2024-01-25T06:02:53;42.45;;;6.97;;
22634;SDS011;11484;50.858;4.384;2024-01-25T06:05:19;32.75;;;6.03;;
22634;SDS011;11484;50.858;4.384;2024-01-25T06:07:45;39.47;;;6.97;;
22634;SDS011;11484;50.858;4.384;2024-01-25T06:10:10;30.83;;;6.53;;
22634;SDS011;11484;50.858;4.384;2024-01-25T06:12:36;35.22;;;6.43;;
22634;SDS011;11484;50.858;4.384;2024-01-25T06:15:02;38.15;;;8.13;;
22634;SDS011;11484;50.858;4.384;2024-01-25T06:17:28;41.85;;;7.38;;
22634;SDS011;11484;50.858;4.384;2024-01-25T06:19:53;41.00;;;7.18;;
22634;SDS011;11484;50.858;4.384;2024-01-25T06:22:19;40.80;;;7.40;;
22634;SDS011;11484;50.858;4.384;2024-01-25T06:24:45;38.03;;;6.63;;
22634;SDS011;11484;50.858;4.384;2024-01-25T06:27:11;46.17;;;6.95;;
22634;SDS011;11484;50.858;4.384;2024-01-25T06:29:37;43.40;;;7.45;;
22634;SDS011;11484;50.858;4.384;2024-01-25T06:32:02;38.72;;;7.10;;
22634;SDS011;11484;50.858;4.384;2024-01-25T06:34:29;36.80;;;7.82;;
22634;SDS011;11484;50.858;4.384;2024-01-25T06:36:55;38.95;;;7.38;;
22634;SDS011;11484;50.858;4.384;2024-01-25T06:39:20;49.40;;;7.80;;
22634;SDS011;11484;50.858;4.384;2024-01-25T06:41:46;40.65;;;7.28;;
22634;SDS011;11484;50.858;4.384;2024-01-25T06:44:12;32.50;;;7.30;;
22634;SDS011;11484;50.858;4.384;2024-01-25T06:46:41;33.17;;;6.85;;
22634;SDS011;11484;50.858;4.384;2024-01-25T06:49:07;41.25;;;8.65;;
22634;SDS011;11484;50.858;4.384;2024-01-25T06:51:33;41.33;;;7.63;;
22634;SDS011;11484;50.858;4.384;2024-01-25T06:53:59;47.38;;;9.25;;
22634;SDS011;11484;50.858;4.384;2024-01-25T06:56:25;48.50;;;9.75;;
22634;SDS011;11484;50.858;4.384;2024-01-25T06:58:51;36.75;;;8.55;;
22634;SDS011;11484;50.858;4.384;2024-01-25T07:01:20;44.10;;;9.93;;
22634;SDS011;11484;50.858;4.384;2024-01-25T07:03:47;47.03;;;10.25;;
22634;SDS011;11484;50.858;4.384;2024-01-25T07:08:45;40.25;;;10.95;;
22634;SDS011;11484;50.858;4.384;2024-01-25T07:11:11;40.88;;;10.50;;
22634;SDS011;11484;50.858;4.384;2024-01-25T07:13:37;41.15;;;10.70;;
22634;SDS011;11484;50.858;4.384;2024-01-25T07:16:04;41.88;;;12.30;;
22634;SDS011;11484;50.858;4.384;2024-01-25T07:18:29;47.65;;;12.90;;
22634;SDS011;11484;50.858;4.384;2024-01-25T07:20:58;48.50;;;12.75;;
22634;SDS011;11484;50.858;4.384;2024-01-25T07:23:24;39.10;;;11.38;;
22634;SDS011;11484;50.858;4.384;2024-01-25T07:25:51;43.88;;;11.18;;
22634;SDS011;11484;50.858;4.384;2024-01-25T07:28:20;43.75;;;12.32;;
22634;SDS011;11484;50.858;4.384;2024-01-25T07:30:49;34.38;;;11.95;;
22634;SDS011;11484;50.858;4.384;2024-01-25T07:33:15;47.33;;;11.80;;
22634;SDS011;11484;50.858;4.384;2024-01-25T07:35:41;36.95;;;10.90;;
22634;SDS011;11484;50.858;4.384;2024-01-25T07:38:11;44.33;;;11.98;;
22634;SDS011;11484;50.858;4.384;2024-01-25T07:40:37;46.15;;;12.02;;
22634;SDS011;11484;50.858;4.384;2024-01-25T07:43:03;45.28;;;12.30;;
22634;SDS011;11484;50.858;4.384;2024-01-25T07:45:28;37.55;;;11.50;;
22634;SDS011;11484;50.858;4.384;2024-01-25T07:47:56;39.53;;;11.20;;
22634;SDS011;11484;50.858;4.384;2024-01-25T07:50:22;32.78;;;9.88;;
22634;SDS011;11484;50.858;4.384;2024-01-25T07:52:47;42.15;;;11.50;;
22634;SDS011;11484;50.858;4.384;2024-01-25T07:55:15;32.78;;;11.40;;
22634;SDS011;11484;50.858;4.384;2024-01-25T07:57:41;30.52;;;11.20;;
22634;SDS011;11484;50.858;4.384;2024-01-25T08:00:07;37.95;;;11.30;;
22634;SDS011;11484;50.858;4.384;2024-01-25T08:02:34;35.38;;;10.77;;
22634;SDS011;11484;50.858;4.384;2024-01-25T08:05:01;26.70;;;10.88;;
22634;SDS011;11484;50.858;4.384;2024-01-25T08:07:27;30.83;;;11.15;;
22634;SDS011;11484;50.858;4.384;2024-01-25T08:09:53;32.72;;;11.80;;
22634;SDS011;11484;50.858;4.384;2024-01-25T08:12:23;26.65;;;10.48;;
22634;SDS011;11484;50.858;4.384;2024-01-25T08:14:51;28.60;;;10.88;;
22634;SDS011;11484;50.858;4.384;2024-01-25T08:17:17;30.67;;;10.88;;
22634;SDS011;11484;50.858;4.384;2024-01-25T08:19:44;30.27;;;12.50;;
22634;SDS011;11484;50.858;4.384;2024-01-25T08:22:11;30.33;;;11.10;;
22634;SDS011;11484;50.858;4.384;2024-01-25T08:24:38;27.98;;;10.18;;
22634;SDS011;11484;50.858;4.384;2024-01-25T08:27:05;27.95;;;10.82;;
22634;SDS011;11484;50.858;4.384;2024-01-25T08:29:32;30.17;;;10.35;;
22634;SDS011;11484;50.858;4.384;2024-01-25T08:31:58;28.42;;;10.27;;
22634;SDS011;11484;50.858;4.384;2024-01-25T08:34:26;28.98;;;11.07;;
22634;SDS011;11484;50.858;4.384;2024-01-25T08:36:52;22.88;;;9.60;;
22634;SDS011;11484;50.858;4.384;2024-01-25T08:39:18;24.17;;;9.80;;
22634;SDS011;11484;50.858;4.384;2024-01-25T08:41:43;26.85;;;10.27;;
22634;SDS011;11484;50.858;4.384;2024-01-25T08:44:10;23.60;;;10.00;;
22634;SDS011;11484;50.858;4.384;2024-01-25T08:46:36;29.23;;;10.68;;
22634;SDS011;11484;50.858;4.384;2024-01-25T08:49:02;24.00;;;10.55;;
22634;SDS011;11484;50.858;4.384;2024-01-25T08:51:33;30.23;;;10.13;;
22634;SDS011;11484;50.858;4.384;2024-01-25T08:53:59;27.42;;;10.02;;
22634;SDS011;11484;50.858;4.384;2024-01-25T08:56:25;23.50;;;10.25;;
22634;SDS011;11484;50.858;4.384;2024-01-25T08:58:50;29.95;;;10.40;;
22634;SDS011;11484;50.858;4.384;2024-01-25T09:01:17;23.92;;;10.15;;
22634;SDS011;11484;50.858;4.384;2024-01-25T09:03:46;20.58;;;9.20;;
22634;SDS011;11484;50.858;4.384;2024-01-25T09:06:12;21.67;;;9.93;;
22634;SDS011;11484;50.858;4.384;2024-01-25T09:08:38;21.60;;;9.25;;
22634;SDS011;11484;50.858;4.384;2024-01-25T09:11:03;28.38;;;9.68;;
22634;SDS011;11484;50.858;4.384;2024-01-25T09:13:29;23.25;;;9.82;;
22634;SDS011;11484;50.858;4.384;2024-01-25T09:15:57;25.90;;;9.40;;
22634;SDS011;11484;50.858;4.384;2024-01-25T09:18:23;22.17;;;9.85;;
22634;SDS011;11484;50.858;4.384;2024-01-25T09:20:53;28.65;;;10.32;;
22634;SDS011;11484;50.858;4.384;2024-01-25T09:23:19;26.50;;;10.38;;
22634;SDS011;11484;50.858;4.384;2024-01-25T09:25:45;26.27;;;9.88;;
22634;SDS011;11484;50.858;4.384;2024-01-25T09:28:13;28.30;;;10.70;;
22634;SDS011;11484;50.858;4.384;2024-01-25T09:30:39;29.13;;;10.40;;
22634;SDS011;11484;50.858;4.384;2024-01-25T09:33:06;40.83;;;13.23;;
22634;SDS011;11484;50.858;4.384;2024-01-25T09:35:32;35.55;;;11.98;;
22634;SDS011;11484;50.858;4.384;2024-01-25T09:37:58;30.02;;;11.43;;
22634;SDS011;11484;50.858;4.384;2024-01-25T09:40:24;39.78;;;12.80;;
22634;SDS011;11484;50.858;4.384;2024-01-25T09:42:51;41.20;;;13.80;;
22634;SDS011;11484;50.858;4.384;2024-01-25T09:45:18;35.28;;;13.20;;
22634;SDS011;11484;50.858;4.384;2024-01-25T09:47:45;39.03;;;15.40;;
22634;SDS011;11484;50.858;4.384;2024-01-25T09:50:11;39.53;;;14.00;;
22634;SDS011;11484;50.858;4.384;2024-01-25T09:52:43;45.13;;;15.88;;
22634;SDS011;11484;50.858;4.384;2024-01-25T09:55:15;37.42;;;14.73;;
22634;SDS011;11484;50.858;4.384;2024-01-25T09:57:45;38.85;;;15.88;;
22634;SDS011;11484;50.858;4.384;2024-01-25T10:00:12;47.15;;;14.93;;
22634;SDS011;11484;50.858;4.384;2024-01-25T10:02:39;48.05;;;15.32;;
22634;SDS011;11484;50.858;4.384;2024-01-25T10:05:05;46.28;;;15.90;;
22634;SDS011;11484;50.858;4.384;2024-01-25T10:07:35;43.83;;;14.95;;
22634;SDS011;11484;50.858;4.384;2024-01-25T10:10:04;49.33;;;15.77;;
22634;SDS011;11484;50.858;4.384;2024-01-25T10:12:33;40.97;;;14.20;;
22634;SDS011;11484;50.858;4.384;2024-01-25T10:14:59;39.47;;;14.32;;
22634;SDS011;11484;50.858;4.384;2024-01-25T10:17:29;43.47;;;14.65;;
22634;SDS011;11484;50.858;4.384;2024-01-25T10:19:55;39.22;;;13.48;;
22634;SDS011;11484;50.858;4.384;2024-01-25T10:22:21;38.78;;;13.77;;
22634;SDS011;11484;50.858;4.384;2024-01-25T10:24:48;41.95;;;13.57;;
22634;SDS011;11484;50.858;4.384;2024-01-25T10:27:15;37.22;;;13.23;;
22634;SDS011;11484;50.858;4.384;2024-01-25T10:29:42;38.90;;;13.57;;
22634;SDS011;11484;50.858;4.384;2024-01-25T10:32:08;31.27;;;12.55;;
22634;SDS011;11484;50.858;4.384;2024-01-25T10:34:38;39.67;;;13.48;;
22634;SDS011;11484;50.858;4.384;2024-01-25T10:37:07;39.70;;;12.60;;
22634;SDS011;11484;50.858;4.384;2024-01-25T10:39:33;39.08;;;12.90;;
22634;SDS011;11484;50.858;4.384;2024-01-25T10:41:59;36.17;;;11.90;;
22634;SDS011;11484;50.858;4.384;2024-01-25T10:44:26;35.72;;;12.73;;
22634;SDS011;11484;50.858;4.384;2024-01-25T10:46:52;37.65;;;11.93;;
22634;SDS011;11484;50.858;4.384;2024-01-25T10:49:19;30.40;;;11.15;;
22634;SDS011;11484;50.858;4.384;2024-01-25T10:51:47;31.70;;;10.55;;
22634;SDS011;11484;50.858;4.384;2024-01-25T10:54:14;36.72;;;11.07;;
22634;SDS011;11484;50.858;4.384;2024-01-25T10:56:41;31.63;;;10.18;;
22634;SDS011;11484;50.858;4.384;2024-01-25T10:59:08;36.25;;;10.55;;
22634;SDS011;11484;50.858;4.384;2024-01-25T11:01:35;34.70;;;11.35;;
22634;SDS011;11484;50.858;4.384;2024-01-25T11:04:01;29.00;;;10.73;;
22634;SDS011;11484;50.858;4.384;2024-01-25T11:06:27;35.72;;;12.65;;
22634;SDS011;11484;50.858;4.384;2024-01-25T11:09:03;38.30;;;11.30;;
22634;SDS011;11484;50.858;4.384;2024-01-25T11:11:32;29.20;;;10.50;;
22634;SDS011;11484;50.858;4.384;2024-01-25T11:14:03;37.63;;;11.13;;
22634;SDS011;11484;50.858;4.384;2024-01-25T11:16:29;31.40;;;10.05;;
22634;SDS011;11484;50.858;4.384;2024-01-25T11:18:57;31.38;;;10.02;;
22634;SDS011;11484;50.858;4.384;2024-01-25T11:21:39;33.92;;;9.45;;
22634;SDS011;11484;50.858;4.384;2024-01-25T11:24:11;23.50;;;8.90;;
22634;SDS011;11484;50.858;4.384;2024-01-25T11:26:49;31.38;;;9.55;;
22634;SDS011;11484;50.858;4.384;2024-01-25T11:29:15;31.88;;;9.50;;
22634;SDS011;11484;50.858;4.384;2024-01-25T11:31:44;25.52;;;9.98;;
22634;SDS011;11484;50.858;4.384;2024-01-25T11:34:13;24.75;;;8.77;;
22634;SDS011;11484;50.858;4.384;2024-01-25T11:36:42;22.00;;;8.18;;
22634;SDS011;11484;50.858;4.384;2024-01-25T11:39:11;31.60;;;10.32;;
22634;SDS011;11484;50.858;4.384;2024-01-25T11:41:38;31.13;;;8.90;;
22634;SDS011;11484;50.858;4.384;2024-01-25T11:44:04;28.23;;;9.07;;
22634;SDS011;11484;50.858;4.384;2024-01-25T11:46:30;28.25;;;8.93;;
22634;SDS011;11484;50.858;4.384;2024-01-25T11:49:00;29.13;;;10.05;;
22634;SDS011;11484;50.858;4.384;2024-01-25T11:51:27;24.85;;;9.52;;
22634;SDS011;11484;50.858;4.384;2024-01-25T11:53:53;21.23;;;9.52;;
22634;SDS011;11484;50.858;4.384;2024-01-25T11:56:19;28.90;;;9.95;;
22634;SDS011;11484;50.858;4.384;2024-01-25T11:58:51;25.88;;;9.60;;
22634;SDS011;11484;50.858;4.384;2024-01-25T12:01:18;31.98;;;9.45;;
22634;SDS011;11484;50.858;4.384;2024-01-25T12:03:45;28.23;;;9.50;;
22634;SDS011;11484;50.858;4.384;2024-01-25T12:06:11;24.92;;;9.07;;
22634;SDS011;11484;50.858;4.384;2024-01-25T12:08:38;26.27;;;9.80;;
22634;SDS011;11484;50.858;4.384;2024-01-25T12:11:04;33.72;;;9.93;;
22634;SDS011;11484;50.858;4.384;2024-01-25T12:13:34;31.13;;;10.07;;
22634;SDS011;11484;50.858;4.384;2024-01-25T12:16:08;28.92;;;9.57;;
22634;SDS011;11484;50.858;4.384;2024-01-25T12:18:34;26.23;;;9.25;;
22634;SDS011;11484;50.858;4.384;2024-01-25T12:21:04;34.55;;;10.02;;
22634;SDS011;11484;50.858;4.384;2024-01-25T12:23:34;28.57;;;11.13;;
22634;SDS011;11484;50.858;4.384;2024-01-25T12:26:08;27.25;;;10.75;;
22634;SDS011;11484;50.858;4.384;2024-01-25T12:28:35;31.38;;;11.45;;
22634;SDS011;11484;50.858;4.384;2024-01-25T12:31:02;28.02;;;13.40;;
22634;SDS011;11484;50.858;4.384;2024-01-25T12:33:31;23.67;;;11.27;;
22634;SDS011;11484;50.858;4.384;2024-01-25T12:35:59;25.30;;;11.52;;
22634;SDS011;11484;50.858;4.384;2024-01-25T12:38:26;19.48;;;10.68;;
22634;SDS011;11484;50.858;4.384;2024-01-25T12:40:59;17.75;;;10.55;;
22634;SDS011;11484;50.858;4.384;2024-01-25T12:43:26;25.73;;;11.73;;
22634;SDS011;11484;50.858;4.384;2024-01-25T12:45:58;23.45;;;12.02;;
22634;SDS011;11484;50.858;4.384;2024-01-25T12:48:24;24.60;;;10.05;;
22634;SDS011;11484;50.858;4.384;2024-01-25T12:50:51;20.80;;;10.25;;
22634;SDS011;11484;50.858;4.384;2024-01-25T12:53:17;26.08;;;10.70;;
22634;SDS011;11484;50.858;4.384;2024-01-25T12:55:43;22.95;;;10.25;;
22634;SDS011;11484;50.858;4.384;2024-01-25T12:58:09;21.98;;;10.70;;
22634;SDS011;11484;50.858;4.384;2024-01-25T13:00:34;19.27;;;9.30;;
22634;SDS011;11484;50.858;4.384;2024-01-25T13:03:00;19.23;;;10.25;;
22634;SDS011;11484;50.858;4.384;2024-01-25T13:05:28;16.27;;;9.02;;
22634;SDS011;11484;50.858;4.384;2024-01-25T13:07:59;18.50;;;9.07;;
22634;SDS011;11484;50.858;4.384;2024-01-25T13:10:25;19.58;;;9.70;;
22634;SDS011;11484;50.858;4.384;2024-01-25T13:12:53;13.45;;;7.85;;
22634;SDS011;11484;50.858;4.384;2024-01-25T13:15:19;17.60;;;7.63;;
22634;SDS011;11484;50.858;4.384;2024-01-25T13:17:45;20.33;;;9.75;;
22634;SDS011;11484;50.858;4.384;2024-01-25T13:20:11;13.52;;;7.45;;
22634;SDS011;11484;50.858;4.384;2024-01-25T13:22:38;15.95;;;7.03;;
22634;SDS011;11484;50.858;4.384;2024-01-25T13:25:08;12.77;;;6.60;;
22634;SDS011;11484;50.858;4.384;2024-01-25T13:27:35;12.82;;;6.10;;
22634;SDS011;11484;50.858;4.384;2024-01-25T13:30:03;11.60;;;6.38;;
22634;SDS011;11484;50.858;4.384;2024-01-25T13:32:30;12.68;;;6.88;;
22634;SDS011;11484;50.858;4.384;2024-01-25T13:34:57;10.75;;;6.50;;
22634;SDS011;11484;50.858;4.384;2024-01-25T13:37:23;13.60;;;6.57;;
22634;SDS011;11484;50.858;4.384;2024-01-25T13:39:50;10.50;;;5.60;;
22634;SDS011;11484;50.858;4.384;2024-01-25T13:42:15;10.80;;;6.22;;
22634;SDS011;11484;50.858;4.384;2024-01-25T13:44:41;10.18;;;6.50;;
22634;SDS011;11484;50.858;4.384;2024-01-25T13:47:23;12.60;;;6.38;;
22634;SDS011;11484;50.858;4.384;2024-01-25T13:49:55;9.48;;;6.43;;
22634;SDS011;11484;50.858;4.384;2024-01-25T13:52:20;9.23;;;6.80;;
22634;SDS011;11484;50.858;4.384;2024-01-25T13:54:47;10.70;;;6.65;;
22634;SDS011;11484;50.858;4.384;2024-01-25T13:57:16;12.15;;;7.15;;
22634;SDS011;11484;50.858;4.384;2024-01-25T13:59:42;10.75;;;7.35;;
22634;SDS011;11484;50.858;4.384;2024-01-25T14:02:13;10.48;;;7.90;;
22634;SDS011;11484;50.858;4.384;2024-01-25T14:04:39;15.55;;;8.93;;
22634;SDS011;11484;50.858;4.384;2024-01-25T14:07:07;15.75;;;8.93;;
22634;SDS011;11484;50.858;4.384;2024-01-25T14:09:37;13.07;;;9.45;;
22634;SDS011;11484;50.858;4.384;2024-01-25T14:12:06;15.02;;;10.02;;
22634;SDS011;11484;50.858;4.384;2024-01-25T14:14:33;16.33;;;10.23;;
22634;SDS011;11484;50.858;4.384;2024-01-25T14:17:01;18.13;;;10.98;;
22634;SDS011;11484;50.858;4.384;2024-01-25T14:19:30;16.13;;;11.05;;
22634;SDS011;11484;50.858;4.384;2024-01-25T14:21:56;18.63;;;11.68;;
22634;SDS011;11484;50.858;4.384;2024-01-25T14:24:22;19.30;;;11.48;;
22634;SDS011;11484;50.858;4.384;2024-01-25T14:26:47;18.33;;;12.70;;
22634;SDS011;11484;50.858;4.384;2024-01-25T14:29:14;16.83;;;11.15;;
22634;SDS011;11484;50.858;4.384;2024-01-25T14:31:40;17.38;;;11.93;;